sensor_id;sensor_type;location;lat;lon;timestamp;P1;durP1;ratioP1;P2;durP2;ratioP2
4508;SDS011;2267;48.816;9.230;2023-08-01T00:01:45;4.60;;;3.90;;
4508;SDS011;2267;48.816;9.230;2023-08-01T00:04:12;5.40;;;3.60;;
4508;SDS011;2267;48.816;9.230;2023-08-01T00:06:39;5.63;;;4.13;;
4508;SDS011;2267;48.816;9.230;2023-08-01T00:09:07;4.07;;;3.67;;
4508;SDS011;2267;48.816;9.230;2023-08-01T00:11:33;6.47;;;3.50;;
4508;SDS011;2267;48.816;9.230;2023-08-01T00:14:00;4.00;;;3.60;;
4508;SDS011;2267;48.816;9.230;2023-08-01T00:16:27;5.20;;;3.73;;
4508;SDS011;2267;48.816;9.230;2023-08-01T00:18:54;6.17;;;3.80;;
4508;SDS011;2267;48.816;9.230;2023-08-01T00:21:22;5.50;;;4.60;;
4508;SDS011;2267;48.816;9.230;2023-08-01T00:23:48;4.80;;;4.37;;
4508;SDS011;2267;48.816;9.230;2023-08-01T00:26:15;4.20;;;3.80;;
4508;SDS011;2267;48.816;9.230;2023-08-01T00:28:42;5.20;;;4.40;;
4508;SDS011;2267;48.816;9.230;2023-08-01T00:31:09;5.90;;;4.43;;
4508;SDS011;2267;48.816;9.230;2023-08-01T00:33:36;6.07;;;4.43;;
4508;SDS011;2267;48.816;9.230;2023-08-01T00:36:03;7.23;;;4.60;;
4508;SDS011;2267;48.816;9.230;2023-08-01T00:38:35;5.30;;;3.97;;
4508;SDS011;2267;48.816;9.230;2023-08-01T00:41:03;5.27;;;4.47;;
4508;SDS011;2267;48.816;9.230;2023-08-01T00:43:29;7.00;;;4.10;;
4508;SDS011;2267;48.816;9.230;2023-08-01T00:45:59;4.53;;;4.13;;
4508;SDS011;2267;48.816;9.230;2023-08-01T00:48:30;4.67;;;3.63;;
4508;SDS011;2267;48.816;9.230;2023-08-01T00:50:57;4.87;;;3.93;;
4508;SDS011;2267;48.816;9.230;2023-08-01T00:53:26;5.03;;;4.53;;
4508;SDS011;2267;48.816;9.230;2023-08-01T00:55:53;4.93;;;4.53;;
4508;SDS011;2267;48.816;9.230;2023-08-01T00:58:21;4.47;;;4.07;;
4508;SDS011;2267;48.816;9.230;2023-08-01T01:00:48;4.57;;;4.00;;
4508;SDS011;2267;48.816;9.230;2023-08-01T01:03:15;5.40;;;3.90;;
4508;SDS011;2267;48.816;9.230;2023-08-01T01:05:47;5.10;;;4.60;;
4508;SDS011;2267;48.816;9.230;2023-08-01T01:08:20;4.80;;;4.00;;
4508;SDS011;2267;48.816;9.230;2023-08-01T01:10:47;4.80;;;4.13;;
4508;SDS011;2267;48.816;9.230;2023-08-01T01:13:14;5.07;;;4.57;;
4508;SDS011;2267;48.816;9.230;2023-08-01T01:15:40;4.67;;;4.20;;
4508;SDS011;2267;48.816;9.230;2023-08-01T01:18:07;7.50;;;4.00;;
4508;SDS011;2267;48.816;9.230;2023-08-01T01:20:34;5.00;;;3.90;;
4508;SDS011;2267;48.816;9.230;2023-08-01T01:23:05;3.93;;;3.60;;
4508;SDS011;2267;48.816;9.230;2023-08-01T01:25:34;4.33;;;3.93;;
4508;SDS011;2267;48.816;9.230;2023-08-01T01:28:04;4.33;;;3.80;;
4508;SDS011;2267;48.816;9.230;2023-08-01T01:30:32;4.30;;;3.63;;
4508;SDS011;2267;48.816;9.230;2023-08-01T01:33:03;4.37;;;3.90;;
4508;SDS011;2267;48.816;9.230;2023-08-01T01:35:33;4.63;;;4.10;;
4508;SDS011;2267;48.816;9.230;2023-08-01T01:38:01;4.23;;;3.80;;
4508;SDS011;2267;48.816;9.230;2023-08-01T01:40:31;4.70;;;4.30;;
4508;SDS011;2267;48.816;9.230;2023-08-01T01:42:59;5.23;;;4.47;;
4508;SDS011;2267;48.816;9.230;2023-08-01T01:45:27;5.57;;;4.07;;
4508;SDS011;2267;48.816;9.230;2023-08-01T01:47:54;5.23;;;3.57;;
4508;SDS011;2267;48.816;9.230;2023-08-01T01:50:21;4.53;;;3.77;;
4508;SDS011;2267;48.816;9.230;2023-08-01T01:52:47;4.77;;;4.17;;
4508;SDS011;2267;48.816;9.230;2023-08-01T01:55:14;7.00;;;4.50;;
4508;SDS011;2267;48.816;9.230;2023-08-01T01:57:41;4.60;;;4.20;;
4508;SDS011;2267;48.816;9.230;2023-08-01T02:00:08;5.73;;;4.63;;
4508;SDS011;2267;48.816;9.230;2023-08-01T02:02:38;4.60;;;4.20;;
4508;SDS011;2267;48.816;9.230;2023-08-01T02:05:05;5.13;;;4.30;;
4508;SDS011;2267;48.816;9.230;2023-08-01T02:07:32;5.43;;;4.20;;
4508;SDS011;2267;48.816;9.230;2023-08-01T02:10:00;4.10;;;3.53;;
4508;SDS011;2267;48.816;9.230;2023-08-01T02:12:27;4.87;;;4.37;;
4508;SDS011;2267;48.816;9.230;2023-08-01T02:14:58;6.20;;;4.23;;
4508;SDS011;2267;48.816;9.230;2023-08-01T02:17:25;5.00;;;4.50;;
4508;SDS011;2267;48.816;9.230;2023-08-01T02:19:52;5.00;;;4.50;;
4508;SDS011;2267;48.816;9.230;2023-08-01T02:22:19;5.30;;;4.80;;
4508;SDS011;2267;48.816;9.230;2023-08-01T02:24:45;4.70;;;3.87;;
4508;SDS011;2267;48.816;9.230;2023-08-01T02:27:12;4.20;;;3.80;;
4508;SDS011;2267;48.816;9.230;2023-08-01T02:29:40;10.33;;;4.83;;
4508;SDS011;2267;48.816;9.230;2023-08-01T02:32:06;4.77;;;4.33;;
4508;SDS011;2267;48.816;9.230;2023-08-01T02:34:34;5.87;;;4.33;;
4508;SDS011;2267;48.816;9.230;2023-08-01T02:37:00;6.07;;;4.00;;
4508;SDS011;2267;48.816;9.230;2023-08-01T02:39:27;4.40;;;4.00;;
4508;SDS011;2267;48.816;9.230;2023-08-01T02:41:54;6.50;;;4.87;;
4508;SDS011;2267;48.816;9.230;2023-08-01T02:44:21;4.53;;;4.13;;
4508;SDS011;2267;48.816;9.230;2023-08-01T02:46:48;5.50;;;4.23;;
4508;SDS011;2267;48.816;9.230;2023-08-01T02:49:14;6.23;;;4.30;;
4508;SDS011;2267;48.816;9.230;2023-08-01T02:51:41;6.23;;;5.20;;
4508;SDS011;2267;48.816;9.230;2023-08-01T02:54:08;4.90;;;4.40;;
4508;SDS011;2267;48.816;9.230;2023-08-01T02:56:35;5.30;;;4.80;;
4508;SDS011;2267;48.816;9.230;2023-08-01T02:59:07;5.07;;;4.40;;
4508;SDS011;2267;48.816;9.230;2023-08-01T03:01:35;4.30;;;3.90;;
4508;SDS011;2267;48.816;9.230;2023-08-01T03:04:03;6.40;;;4.73;;
4508;SDS011;2267;48.816;9.230;2023-08-01T03:06:31;6.20;;;4.70;;
4508;SDS011;2267;48.816;9.230;2023-08-01T03:09:00;5.37;;;4.23;;
4508;SDS011;2267;48.816;9.230;2023-08-01T03:11:27;5.30;;;4.20;;
4508;SDS011;2267;48.816;9.230;2023-08-01T03:13:54;5.37;;;4.50;;
4508;SDS011;2267;48.816;9.230;2023-08-01T03:16:21;5.30;;;4.40;;
4508;SDS011;2267;48.816;9.230;2023-08-01T03:18:48;5.10;;;4.60;;
4508;SDS011;2267;48.816;9.230;2023-08-01T03:21:15;5.07;;;4.57;;
4508;SDS011;2267;48.816;9.230;2023-08-01T03:23:42;7.00;;;4.70;;
4508;SDS011;2267;48.816;9.230;2023-08-01T03:26:09;6.33;;;5.73;;
4508;SDS011;2267;48.816;9.230;2023-08-01T03:28:36;7.23;;;4.67;;
4508;SDS011;2267;48.816;9.230;2023-08-01T03:31:03;5.63;;;5.10;;
4508;SDS011;2267;48.816;9.230;2023-08-01T03:33:30;6.57;;;4.63;;
4508;SDS011;2267;48.816;9.230;2023-08-01T03:35:58;6.93;;;4.33;;
4508;SDS011;2267;48.816;9.230;2023-08-01T03:38:25;5.97;;;4.77;;
4508;SDS011;2267;48.816;9.230;2023-08-01T03:40:52;5.30;;;4.80;;
4508;SDS011;2267;48.816;9.230;2023-08-01T03:43:19;5.63;;;4.43;;
4508;SDS011;2267;48.816;9.230;2023-08-01T03:45:50;5.47;;;4.30;;
4508;SDS011;2267;48.816;9.230;2023-08-01T03:48:17;5.03;;;4.63;;
4508;SDS011;2267;48.816;9.230;2023-08-01T03:50:44;6.10;;;4.93;;
4508;SDS011;2267;48.816;9.230;2023-08-01T03:53:11;6.70;;;4.37;;
4508;SDS011;2267;48.816;9.230;2023-08-01T03:55:37;5.50;;;5.00;;
4508;SDS011;2267;48.816;9.230;2023-08-01T03:58:04;4.57;;;4.17;;
4508;SDS011;2267;48.816;9.230;2023-08-01T04:00:31;5.30;;;4.60;;
4508;SDS011;2267;48.816;9.230;2023-08-01T04:02:58;4.37;;;3.97;;
4508;SDS011;2267;48.816;9.230;2023-08-01T04:05:26;4.37;;;3.97;;
4508;SDS011;2267;48.816;9.230;2023-08-01T04:07:53;7.83;;;4.40;;
4508;SDS011;2267;48.816;9.230;2023-08-01T04:10:23;4.47;;;3.90;;
4508;SDS011;2267;48.816;9.230;2023-08-01T04:12:50;7.30;;;4.17;;
4508;SDS011;2267;48.816;9.230;2023-08-01T04:15:17;4.47;;;3.50;;
4508;SDS011;2267;48.816;9.230;2023-08-01T04:17:44;4.50;;;3.40;;
4508;SDS011;2267;48.816;9.230;2023-08-01T04:20:11;4.90;;;3.60;;
4508;SDS011;2267;48.816;9.230;2023-08-01T04:22:38;4.50;;;3.87;;
4508;SDS011;2267;48.816;9.230;2023-08-01T04:25:05;4.63;;;3.20;;
4508;SDS011;2267;48.816;9.230;2023-08-01T04:27:33;4.80;;;4.40;;
4508;SDS011;2267;48.816;9.230;2023-08-01T04:30:00;5.13;;;3.83;;
4508;SDS011;2267;48.816;9.230;2023-08-01T04:32:27;4.40;;;3.73;;
4508;SDS011;2267;48.816;9.230;2023-08-01T04:34:53;4.07;;;3.67;;
4508;SDS011;2267;48.816;9.230;2023-08-01T04:37:20;4.97;;;3.93;;
4508;SDS011;2267;48.816;9.230;2023-08-01T04:39:49;5.90;;;4.63;;
4508;SDS011;2267;48.816;9.230;2023-08-01T04:42:16;6.20;;;3.97;;
4508;SDS011;2267;48.816;9.230;2023-08-01T04:44:42;5.07;;;4.57;;
4508;SDS011;2267;48.816;9.230;2023-08-01T04:47:10;4.50;;;3.87;;
4508;SDS011;2267;48.816;9.230;2023-08-01T04:49:37;4.97;;;3.90;;
4508;SDS011;2267;48.816;9.230;2023-08-01T04:52:04;6.20;;;4.00;;
4508;SDS011;2267;48.816;9.230;2023-08-01T04:54:33;5.73;;;3.90;;
4508;SDS011;2267;48.816;9.230;2023-08-01T04:57:00;5.33;;;3.73;;
4508;SDS011;2267;48.816;9.230;2023-08-01T04:59:27;6.63;;;4.47;;
4508;SDS011;2267;48.816;9.230;2023-08-01T05:01:54;5.10;;;3.93;;
4508;SDS011;2267;48.816;9.230;2023-08-01T05:04:21;5.73;;;4.23;;
4508;SDS011;2267;48.816;9.230;2023-08-01T05:06:48;6.47;;;3.80;;
4508;SDS011;2267;48.816;9.230;2023-08-01T05:09:15;4.10;;;3.70;;
4508;SDS011;2267;48.816;9.230;2023-08-01T05:11:41;4.20;;;3.70;;
4508;SDS011;2267;48.816;9.230;2023-08-01T05:14:08;6.80;;;3.83;;
4508;SDS011;2267;48.816;9.230;2023-08-01T05:16:35;6.00;;;4.00;;
4508;SDS011;2267;48.816;9.230;2023-08-01T05:19:02;4.47;;;3.70;;
4508;SDS011;2267;48.816;9.230;2023-08-01T05:21:29;4.93;;;3.93;;
4508;SDS011;2267;48.816;9.230;2023-08-01T05:23:55;6.90;;;3.47;;
4508;SDS011;2267;48.816;9.230;2023-08-01T05:26:22;4.57;;;3.40;;
4508;SDS011;2267;48.816;9.230;2023-08-01T05:28:49;10.23;;;3.13;;
4508;SDS011;2267;48.816;9.230;2023-08-01T05:31:16;6.20;;;3.33;;
4508;SDS011;2267;48.816;9.230;2023-08-01T05:33:43;6.80;;;4.07;;
4508;SDS011;2267;48.816;9.230;2023-08-01T05:36:10;4.53;;;3.30;;
4508;SDS011;2267;48.816;9.230;2023-08-01T05:38:37;5.90;;;3.40;;
4508;SDS011;2267;48.816;9.230;2023-08-01T05:41:04;4.27;;;3.30;;
4508;SDS011;2267;48.816;9.230;2023-08-01T05:43:30;3.97;;;3.43;;
4508;SDS011;2267;48.816;9.230;2023-08-01T05:45:57;4.40;;;3.80;;
4508;SDS011;2267;48.816;9.230;2023-08-01T05:48:24;5.03;;;3.40;;
4508;SDS011;2267;48.816;9.230;2023-08-01T05:50:51;5.43;;;3.03;;
4508;SDS011;2267;48.816;9.230;2023-08-01T05:53:19;6.17;;;3.93;;
4508;SDS011;2267;48.816;9.230;2023-08-01T05:55:46;5.03;;;3.17;;
4508;SDS011;2267;48.816;9.230;2023-08-01T05:58:13;4.80;;;3.70;;
4508;SDS011;2267;48.816;9.230;2023-08-01T06:00:40;4.40;;;3.87;;
4508;SDS011;2267;48.816;9.230;2023-08-01T06:03:06;4.30;;;3.70;;
4508;SDS011;2267;48.816;9.230;2023-08-01T06:05:34;3.93;;;3.53;;
4508;SDS011;2267;48.816;9.230;2023-08-01T06:08:01;3.90;;;2.90;;
4508;SDS011;2267;48.816;9.230;2023-08-01T06:10:29;7.00;;;3.87;;
4508;SDS011;2267;48.816;9.230;2023-08-01T06:12:56;4.97;;;3.73;;
4508;SDS011;2267;48.816;9.230;2023-08-01T06:15:23;4.03;;;3.50;;
4508;SDS011;2267;48.816;9.230;2023-08-01T06:17:50;4.33;;;3.77;;
4508;SDS011;2267;48.816;9.230;2023-08-01T06:20:16;5.30;;;3.83;;
4508;SDS011;2267;48.816;9.230;2023-08-01T06:22:43;5.57;;;3.60;;
4508;SDS011;2267;48.816;9.230;2023-08-01T06:25:10;5.50;;;4.00;;
4508;SDS011;2267;48.816;9.230;2023-08-01T06:27:39;7.87;;;4.07;;
4508;SDS011;2267;48.816;9.230;2023-08-01T06:30:06;6.13;;;4.60;;
4508;SDS011;2267;48.816;9.230;2023-08-01T06:32:33;5.07;;;4.53;;
4508;SDS011;2267;48.816;9.230;2023-08-01T06:35:00;5.07;;;4.57;;
4508;SDS011;2267;48.816;9.230;2023-08-01T06:37:27;6.63;;;5.17;;
4508;SDS011;2267;48.816;9.230;2023-08-01T06:39:54;5.83;;;5.13;;
4508;SDS011;2267;48.816;9.230;2023-08-01T06:42:21;5.60;;;3.90;;
4508;SDS011;2267;48.816;9.230;2023-08-01T06:44:48;5.20;;;4.40;;
4508;SDS011;2267;48.816;9.230;2023-08-01T06:47:15;8.27;;;5.00;;
4508;SDS011;2267;48.816;9.230;2023-08-01T06:49:42;6.70;;;5.07;;
4508;SDS011;2267;48.816;9.230;2023-08-01T06:52:10;5.70;;;4.53;;
4508;SDS011;2267;48.816;9.230;2023-08-01T06:54:36;7.50;;;5.33;;
4508;SDS011;2267;48.816;9.230;2023-08-01T06:57:05;6.23;;;5.50;;
4508;SDS011;2267;48.816;9.230;2023-08-01T06:59:33;6.53;;;5.17;;
4508;SDS011;2267;48.816;9.230;2023-08-01T07:02:00;8.17;;;5.73;;
4508;SDS011;2267;48.816;9.230;2023-08-01T07:04:28;5.60;;;4.97;;
4508;SDS011;2267;48.816;9.230;2023-08-01T07:06:55;7.60;;;5.77;;
4508;SDS011;2267;48.816;9.230;2023-08-01T07:09:22;5.90;;;5.40;;
4508;SDS011;2267;48.816;9.230;2023-08-01T07:11:48;5.63;;;5.10;;
4508;SDS011;2267;48.816;9.230;2023-08-01T07:14:15;5.53;;;5.00;;
4508;SDS011;2267;48.816;9.230;2023-08-01T07:16:42;8.13;;;6.17;;
4508;SDS011;2267;48.816;9.230;2023-08-01T07:19:09;8.27;;;6.10;;
4508;SDS011;2267;48.816;9.230;2023-08-01T07:21:36;8.57;;;6.30;;
4508;SDS011;2267;48.816;9.230;2023-08-01T07:24:03;7.97;;;7.03;;
4508;SDS011;2267;48.816;9.230;2023-08-01T07:26:30;6.23;;;5.63;;
4508;SDS011;2267;48.816;9.230;2023-08-01T07:28:57;8.50;;;7.70;;
4508;SDS011;2267;48.816;9.230;2023-08-01T07:31:24;8.43;;;7.60;;
4508;SDS011;2267;48.816;9.230;2023-08-01T07:33:51;7.63;;;6.73;;
4508;SDS011;2267;48.816;9.230;2023-08-01T07:36:17;9.47;;;7.77;;
4508;SDS011;2267;48.816;9.230;2023-08-01T07:38:44;9.60;;;7.73;;
4508;SDS011;2267;48.816;9.230;2023-08-01T07:41:11;7.90;;;7.10;;
4508;SDS011;2267;48.816;9.230;2023-08-01T07:43:38;6.83;;;6.10;;
4508;SDS011;2267;48.816;9.230;2023-08-01T07:46:05;9.93;;;7.40;;
4508;SDS011;2267;48.816;9.230;2023-08-01T07:48:35;8.10;;;6.60;;
4508;SDS011;2267;48.816;9.230;2023-08-01T07:51:01;8.33;;;7.27;;
4508;SDS011;2267;48.816;9.230;2023-08-01T07:53:30;7.27;;;6.60;;
4508;SDS011;2267;48.816;9.230;2023-08-01T07:55:57;7.40;;;6.60;;
4508;SDS011;2267;48.816;9.230;2023-08-01T07:58:24;7.40;;;5.70;;
4508;SDS011;2267;48.816;9.230;2023-08-01T08:00:51;6.97;;;6.20;;
4508;SDS011;2267;48.816;9.230;2023-08-01T08:03:17;6.43;;;4.80;;
4508;SDS011;2267;48.816;9.230;2023-08-01T08:05:45;7.33;;;6.00;;
4508;SDS011;2267;48.816;9.230;2023-08-01T08:08:12;5.40;;;4.90;;
4508;SDS011;2267;48.816;9.230;2023-08-01T08:10:39;5.37;;;4.60;;
4508;SDS011;2267;48.816;9.230;2023-08-01T08:13:08;5.77;;;4.63;;
4508;SDS011;2267;48.816;9.230;2023-08-01T08:15:35;4.40;;;4.00;;
4508;SDS011;2267;48.816;9.230;2023-08-01T08:18:02;4.73;;;4.33;;
4508;SDS011;2267;48.816;9.230;2023-08-01T08:20:31;5.00;;;4.37;;
4508;SDS011;2267;48.816;9.230;2023-08-01T08:23:06;4.40;;;4.00;;
4508;SDS011;2267;48.816;9.230;2023-08-01T08:25:32;4.77;;;4.10;;
4508;SDS011;2267;48.816;9.230;2023-08-01T08:27:59;4.70;;;4.20;;
4508;SDS011;2267;48.816;9.230;2023-08-01T08:30:26;4.07;;;3.27;;
4508;SDS011;2267;48.816;9.230;2023-08-01T08:32:53;5.20;;;3.47;;
4508;SDS011;2267;48.816;9.230;2023-08-01T08:35:20;3.90;;;3.50;;
4508;SDS011;2267;48.816;9.230;2023-08-01T08:37:47;3.70;;;3.40;;
4508;SDS011;2267;48.816;9.230;2023-08-01T08:40:14;4.10;;;3.33;;
4508;SDS011;2267;48.816;9.230;2023-08-01T08:42:40;6.60;;;3.20;;
4508;SDS011;2267;48.816;9.230;2023-08-01T08:45:08;3.30;;;3.00;;
4508;SDS011;2267;48.816;9.230;2023-08-01T08:47:36;3.93;;;3.20;;
4508;SDS011;2267;48.816;9.230;2023-08-01T08:50:08;4.83;;;3.80;;
4508;SDS011;2267;48.816;9.230;2023-08-01T08:52:36;4.40;;;3.60;;
4508;SDS011;2267;48.816;9.230;2023-08-01T08:55:03;4.10;;;3.70;;
4508;SDS011;2267;48.816;9.230;2023-08-01T08:57:31;6.17;;;3.47;;
4508;SDS011;2267;48.816;9.230;2023-08-01T09:00:00;3.33;;;3.03;;
4508;SDS011;2267;48.816;9.230;2023-08-01T09:02:32;4.47;;;3.53;;
4508;SDS011;2267;48.816;9.230;2023-08-01T09:04:59;4.50;;;3.37;;
4508;SDS011;2267;48.816;9.230;2023-08-01T09:07:27;3.50;;;3.13;;
4508;SDS011;2267;48.816;9.230;2023-08-01T09:09:56;5.40;;;4.20;;
4508;SDS011;2267;48.816;9.230;2023-08-01T09:12:23;4.30;;;3.63;;
4508;SDS011;2267;48.816;9.230;2023-08-01T09:14:51;3.03;;;2.70;;
4508;SDS011;2267;48.816;9.230;2023-08-01T09:17:18;4.57;;;3.50;;
4508;SDS011;2267;48.816;9.230;2023-08-01T09:19:45;3.13;;;2.83;;
4508;SDS011;2267;48.816;9.230;2023-08-01T09:22:13;5.50;;;3.27;;
4508;SDS011;2267;48.816;9.230;2023-08-01T09:24:50;3.93;;;3.23;;
4508;SDS011;2267;48.816;9.230;2023-08-01T09:27:18;3.60;;;3.30;;
4508;SDS011;2267;48.816;9.230;2023-08-01T09:29:46;3.17;;;2.80;;
4508;SDS011;2267;48.816;9.230;2023-08-01T09:32:13;5.70;;;2.83;;
4508;SDS011;2267;48.816;9.230;2023-08-01T09:34:41;3.43;;;2.40;;
4508;SDS011;2267;48.816;9.230;2023-08-01T09:37:09;2.93;;;2.40;;
4508;SDS011;2267;48.816;9.230;2023-08-01T09:39:36;3.60;;;2.23;;
4508;SDS011;2267;48.816;9.230;2023-08-01T09:42:03;4.13;;;2.53;;
4508;SDS011;2267;48.816;9.230;2023-08-01T09:44:30;5.17;;;2.60;;
4508;SDS011;2267;48.816;9.230;2023-08-01T09:47:00;4.07;;;2.70;;
4508;SDS011;2267;48.816;9.230;2023-08-01T09:49:31;3.30;;;2.30;;
4508;SDS011;2267;48.816;9.230;2023-08-01T09:51:58;3.83;;;2.90;;
4508;SDS011;2267;48.816;9.230;2023-08-01T09:54:25;3.00;;;2.30;;
4508;SDS011;2267;48.816;9.230;2023-08-01T09:56:54;3.80;;;2.43;;
4508;SDS011;2267;48.816;9.230;2023-08-01T09:59:23;2.67;;;2.30;;
4508;SDS011;2267;48.816;9.230;2023-08-01T10:01:52;3.10;;;2.10;;
4508;SDS011;2267;48.816;9.230;2023-08-01T10:04:23;2.90;;;2.10;;
4508;SDS011;2267;48.816;9.230;2023-08-01T10:07:04;2.77;;;1.60;;
4508;SDS011;2267;48.816;9.230;2023-08-01T10:09:34;3.03;;;1.37;;
4508;SDS011;2267;48.816;9.230;2023-08-01T10:12:02;2.53;;;1.43;;
4508;SDS011;2267;48.816;9.230;2023-08-01T10:14:32;1.80;;;1.10;;
4508;SDS011;2267;48.816;9.230;2023-08-01T10:16:59;1.90;;;1.10;;
4508;SDS011;2267;48.816;9.230;2023-08-01T10:19:29;1.90;;;1.03;;
4508;SDS011;2267;48.816;9.230;2023-08-01T10:21:58;2.90;;;1.17;;
4508;SDS011;2267;48.816;9.230;2023-08-01T10:24:26;1.93;;;0.90;;
4508;SDS011;2267;48.816;9.230;2023-08-01T10:26:54;1.90;;;0.80;;
4508;SDS011;2267;48.816;9.230;2023-08-01T10:29:21;2.50;;;1.03;;
4508;SDS011;2267;48.816;9.230;2023-08-01T10:31:54;1.53;;;0.83;;
4508;SDS011;2267;48.816;9.230;2023-08-01T10:34:21;1.80;;;0.97;;
4508;SDS011;2267;48.816;9.230;2023-08-01T10:36:55;1.90;;;0.90;;
4508;SDS011;2267;48.816;9.230;2023-08-01T10:39:23;1.80;;;0.90;;
4508;SDS011;2267;48.816;9.230;2023-08-01T10:41:58;3.60;;;1.13;;
4508;SDS011;2267;48.816;9.230;2023-08-01T10:44:26;1.57;;;0.93;;
4508;SDS011;2267;48.816;9.230;2023-08-01T10:46:55;1.70;;;1.10;;
4508;SDS011;2267;48.816;9.230;2023-08-01T10:49:37;1.73;;;0.90;;
4508;SDS011;2267;48.816;9.230;2023-08-01T10:52:18;2.10;;;0.90;;
4508;SDS011;2267;48.816;9.230;2023-08-01T10:54:58;3.80;;;1.00;;
4508;SDS011;2267;48.816;9.230;2023-08-01T10:57:27;1.93;;;1.17;;
4508;SDS011;2267;48.816;9.230;2023-08-01T10:59:56;3.67;;;0.80;;
4508;SDS011;2267;48.816;9.230;2023-08-01T11:02:27;1.90;;;1.10;;
4508;SDS011;2267;48.816;9.230;2023-08-01T11:05:02;1.80;;;1.07;;
4508;SDS011;2267;48.816;9.230;2023-08-01T11:07:33;1.70;;;1.00;;
4508;SDS011;2267;48.816;9.230;2023-08-01T11:10:04;1.67;;;1.00;;
4508;SDS011;2267;48.816;9.230;2023-08-01T11:12:34;1.80;;;1.00;;
4508;SDS011;2267;48.816;9.230;2023-08-01T11:15:05;2.00;;;1.20;;
4508;SDS011;2267;48.816;9.230;2023-08-01T11:17:35;1.60;;;0.80;;
4508;SDS011;2267;48.816;9.230;2023-08-01T11:20:06;1.97;;;1.17;;
4508;SDS011;2267;48.816;9.230;2023-08-01T11:22:34;2.43;;;1.00;;
4508;SDS011;2267;48.816;9.230;2023-08-01T11:25:02;1.80;;;1.10;;
4508;SDS011;2267;48.816;9.230;2023-08-01T11:27:29;1.93;;;1.00;;
4508;SDS011;2267;48.816;9.230;2023-08-01T11:29:56;6.40;;;1.27;;
4508;SDS011;2267;48.816;9.230;2023-08-01T11:32:32;2.43;;;1.00;;
4508;SDS011;2267;48.816;9.230;2023-08-01T11:35:01;2.00;;;1.17;;
4508;SDS011;2267;48.816;9.230;2023-08-01T11:37:29;2.03;;;1.10;;
4508;SDS011;2267;48.816;9.230;2023-08-01T11:39:56;1.80;;;1.00;;
4508;SDS011;2267;48.816;9.230;2023-08-01T11:42:24;2.40;;;1.40;;
4508;SDS011;2267;48.816;9.230;2023-08-01T11:45:06;2.60;;;1.10;;
4508;SDS011;2267;48.816;9.230;2023-08-01T11:47:34;2.93;;;1.27;;
4508;SDS011;2267;48.816;9.230;2023-08-01T11:50:01;1.70;;;1.10;;
4508;SDS011;2267;48.816;9.230;2023-08-01T11:52:29;4.30;;;1.17;;
4508;SDS011;2267;48.816;9.230;2023-08-01T11:54:56;2.43;;;1.30;;
4508;SDS011;2267;48.816;9.230;2023-08-01T11:57:22;2.20;;;1.43;;
4508;SDS011;2267;48.816;9.230;2023-08-01T11:59:50;2.47;;;0.97;;
4508;SDS011;2267;48.816;9.230;2023-08-01T12:02:24;4.07;;;1.10;;
4508;SDS011;2267;48.816;9.230;2023-08-01T12:04:52;2.30;;;1.30;;
4508;SDS011;2267;48.816;9.230;2023-08-01T12:07:20;2.80;;;1.43;;
4508;SDS011;2267;48.816;9.230;2023-08-01T12:09:56;3.20;;;1.50;;
4508;SDS011;2267;48.816;9.230;2023-08-01T12:12:26;2.10;;;1.60;;
4508;SDS011;2267;48.816;9.230;2023-08-01T12:14:53;1.80;;;1.10;;
4508;SDS011;2267;48.816;9.230;2023-08-01T12:17:25;3.57;;;1.47;;
4508;SDS011;2267;48.816;9.230;2023-08-01T12:19:52;2.97;;;1.50;;
4508;SDS011;2267;48.816;9.230;2023-08-01T12:22:19;4.40;;;1.80;;
4508;SDS011;2267;48.816;9.230;2023-08-01T12:24:45;2.00;;;1.10;;
4508;SDS011;2267;48.816;9.230;2023-08-01T12:27:12;4.33;;;1.50;;
4508;SDS011;2267;48.816;9.230;2023-08-01T12:29:39;2.73;;;1.20;;
4508;SDS011;2267;48.816;9.230;2023-08-01T12:32:06;2.77;;;1.40;;
4508;SDS011;2267;48.816;9.230;2023-08-01T12:34:33;3.53;;;1.67;;
4508;SDS011;2267;48.816;9.230;2023-08-01T12:37:01;3.23;;;1.13;;
4508;SDS011;2267;48.816;9.230;2023-08-01T12:39:28;2.10;;;1.40;;
4508;SDS011;2267;48.816;9.230;2023-08-01T12:41:55;2.10;;;1.37;;
4508;SDS011;2267;48.816;9.230;2023-08-01T12:44:21;2.07;;;1.37;;
4508;SDS011;2267;48.816;9.230;2023-08-01T12:46:49;2.97;;;1.10;;
4508;SDS011;2267;48.816;9.230;2023-08-01T12:49:17;2.20;;;1.33;;
4508;SDS011;2267;48.816;9.230;2023-08-01T12:51:44;2.10;;;1.20;;
4508;SDS011;2267;48.816;9.230;2023-08-01T12:54:13;2.00;;;1.30;;
4508;SDS011;2267;48.816;9.230;2023-08-01T12:56:40;2.23;;;1.23;;
4508;SDS011;2267;48.816;9.230;2023-08-01T12:59:08;2.07;;;1.33;;
4508;SDS011;2267;48.816;9.230;2023-08-01T13:01:34;2.63;;;1.53;;
4508;SDS011;2267;48.816;9.230;2023-08-01T13:04:01;2.47;;;1.30;;
4508;SDS011;2267;48.816;9.230;2023-08-01T13:06:28;2.37;;;1.23;;
4508;SDS011;2267;48.816;9.230;2023-08-01T13:08:55;3.93;;;1.47;;
4508;SDS011;2267;48.816;9.230;2023-08-01T13:11:22;2.23;;;1.33;;
4508;SDS011;2267;48.816;9.230;2023-08-01T13:13:49;2.00;;;1.23;;
4508;SDS011;2267;48.816;9.230;2023-08-01T13:16:16;2.33;;;1.30;;
4508;SDS011;2267;48.816;9.230;2023-08-01T13:18:43;2.40;;;1.27;;
4508;SDS011;2267;48.816;9.230;2023-08-01T13:21:10;3.77;;;1.40;;
4508;SDS011;2267;48.816;9.230;2023-08-01T13:23:38;2.87;;;1.40;;
4508;SDS011;2267;48.816;9.230;2023-08-01T13:26:05;2.57;;;1.40;;
4508;SDS011;2267;48.816;9.230;2023-08-01T13:28:32;2.60;;;1.40;;
4508;SDS011;2267;48.816;9.230;2023-08-01T13:30:59;2.73;;;1.50;;
4508;SDS011;2267;48.816;9.230;2023-08-01T13:33:25;2.93;;;1.50;;
4508;SDS011;2267;48.816;9.230;2023-08-01T13:35:52;10.20;;;2.43;;
4508;SDS011;2267;48.816;9.230;2023-08-01T13:38:20;2.60;;;1.70;;
4508;SDS011;2267;48.816;9.230;2023-08-01T13:40:47;2.30;;;1.30;;
4508;SDS011;2267;48.816;9.230;2023-08-01T13:43:13;5.10;;;1.40;;
4508;SDS011;2267;48.816;9.230;2023-08-01T13:45:40;1.93;;;1.20;;
4508;SDS011;2267;48.816;9.230;2023-08-01T13:48:07;3.00;;;1.20;;
4508;SDS011;2267;48.816;9.230;2023-08-01T13:50:34;3.27;;;1.47;;
4508;SDS011;2267;48.816;9.230;2023-08-01T13:53:01;2.83;;;1.20;;
4508;SDS011;2267;48.816;9.230;2023-08-01T13:55:28;3.00;;;1.67;;
4508;SDS011;2267;48.816;9.230;2023-08-01T13:57:55;2.50;;;1.77;;
4508;SDS011;2267;48.816;9.230;2023-08-01T14:00:22;7.40;;;1.73;;
4508;SDS011;2267;48.816;9.230;2023-08-01T14:02:49;3.03;;;1.50;;
4508;SDS011;2267;48.816;9.230;2023-08-01T14:05:18;2.30;;;1.50;;
4508;SDS011;2267;48.816;9.230;2023-08-01T14:07:44;2.57;;;1.43;;
4508;SDS011;2267;48.816;9.230;2023-08-01T14:10:12;3.53;;;2.30;;
4508;SDS011;2267;48.816;9.230;2023-08-01T14:12:41;3.90;;;1.60;;
4508;SDS011;2267;48.816;9.230;2023-08-01T14:15:07;4.90;;;1.60;;
4508;SDS011;2267;48.816;9.230;2023-08-01T14:17:35;2.77;;;1.40;;
4508;SDS011;2267;48.816;9.230;2023-08-01T14:20:02;4.47;;;1.37;;
4508;SDS011;2267;48.816;9.230;2023-08-01T14:22:30;3.47;;;1.50;;
4508;SDS011;2267;48.816;9.230;2023-08-01T14:24:57;2.80;;;1.20;;
4508;SDS011;2267;48.816;9.230;2023-08-01T14:27:24;2.20;;;1.50;;
4508;SDS011;2267;48.816;9.230;2023-08-01T14:29:51;4.50;;;1.60;;
4508;SDS011;2267;48.816;9.230;2023-08-01T14:32:18;2.67;;;1.67;;
4508;SDS011;2267;48.816;9.230;2023-08-01T14:34:45;2.93;;;1.60;;
4508;SDS011;2267;48.816;9.230;2023-08-01T14:37:12;3.10;;;1.47;;
4508;SDS011;2267;48.816;9.230;2023-08-01T14:39:39;3.03;;;1.50;;
4508;SDS011;2267;48.816;9.230;2023-08-01T14:42:06;4.87;;;1.80;;
4508;SDS011;2267;48.816;9.230;2023-08-01T14:44:33;2.40;;;1.60;;
4508;SDS011;2267;48.816;9.230;2023-08-01T14:47:00;2.00;;;1.20;;
4508;SDS011;2267;48.816;9.230;2023-08-01T14:49:26;3.40;;;1.27;;
4508;SDS011;2267;48.816;9.230;2023-08-01T14:51:55;4.80;;;1.77;;
4508;SDS011;2267;48.816;9.230;2023-08-01T14:54:22;3.33;;;1.30;;
4508;SDS011;2267;48.816;9.230;2023-08-01T14:57:05;2.67;;;1.53;;
4508;SDS011;2267;48.816;9.230;2023-08-01T14:59:32;2.80;;;1.17;;
4508;SDS011;2267;48.816;9.230;2023-08-01T15:01:59;2.90;;;1.30;;
4508;SDS011;2267;48.816;9.230;2023-08-01T15:04:25;3.47;;;1.40;;
4508;SDS011;2267;48.816;9.230;2023-08-01T15:06:53;2.73;;;1.20;;
4508;SDS011;2267;48.816;9.230;2023-08-01T15:09:20;3.03;;;1.20;;
4508;SDS011;2267;48.816;9.230;2023-08-01T15:11:47;2.00;;;1.20;;
4508;SDS011;2267;48.816;9.230;2023-08-01T15:14:14;2.90;;;1.30;;
4508;SDS011;2267;48.816;9.230;2023-08-01T15:16:41;2.87;;;1.20;;
4508;SDS011;2267;48.816;9.230;2023-08-01T15:19:08;2.13;;;1.17;;